Time;durP1;ratioP1;P1;durP2;ratioP2;P2;SDS_P1;SDS_P2;PMS_P1;PMS_P2;Temp;Humidity;BMP_temperature;BMP_pressure;BME280_temperature;BME280_humidity;BME280_pressure;Samples;Min_cycle;Max_cycle;Signal;HPM_P1;HPM_P2
2022/12/01 00:00:31;;;;;;;48.53;24.98;;;;;;;4.66;100.00;102701.34;5052692;28;20044;-81
2022/12/01 00:02:58;;;;;;;49.65;25.08;;;;;;;4.72;100.00;102708.97;5052730;28;20029;-80
2022/12/01 00:05:23;;;;;;;53.97;25.10;;;;;;;4.68;100.00;102701.31;5052413;28;20473;-81
2022/12/01 00:07:49;;;;;;;57.67;26.67;;;;;;;4.39;100.00;102650.41;5052314;28;20029;-79
2022/12/01 00:10:27;;;;;;;49.95;25.85;;;;;;;4.59;100.00;102692.84;5073276;22;20064;-79
2022/12/01 00:12:58;;;;;;;53.92;25.95;;;;;;;4.72;100.00;102706.41;5072509;28;20029;-80
2022/12/01 00:15:35;;;;;;;52.95;26.75;;;;;;;4.68;100.00;102694.50;5073029;28;20027;-80
2022/12/01 00:18:06;;;;;;;50.42;25.15;;;;;;;4.62;100.00;102684.31;5075907;28;20029;-80
2022/12/01 00:20:33;;;;;;;50.83;26.17;;;;;;;4.63;100.00;102693.69;5075886;28;20073;-79
2022/12/01 00:22:59;;;;;;;48.80;24.52;;;;;;;4.66;100.00;102696.22;5075919;28;20028;-80
2022/12/01 00:25:24;;;;;;;53.15;26.05;;;;;;;4.72;100.00;102708.97;5075904;28;20020;-79
2022/12/01 00:27:51;;;;;;;51.35;26.17;;;;;;;4.73;100.00;102702.16;5057980;28;20399;-78
2022/12/01 00:30:19;;;;;;;56.45;25.38;;;;;;;4.57;100.00;102676.69;5075651;28;20029;-77
2022/12/01 00:32:44;;;;;;;56.20;26.38;;;;;;;4.59;100.00;102692.00;5075869;28;20029;-79
2022/12/01 00:35:10;;;;;;;53.85;26.52;;;;;;;4.48;100.00;102674.19;5075948;28;20558;-80
2022/12/01 00:37:36;;;;;;;56.35;27.67;;;;;;;4.44;100.00;102667.41;5057958;28;20024;-79
2022/12/01 00:40:02;;;;;;;56.30;25.95;;;;;;;4.68;100.00;102704.72;5075842;28;20019;-79
2022/12/01 00:42:28;;;;;;;61.15;27.20;;;;;;;4.39;100.00;102660.63;5075666;28;20017;-79
2022/12/01 00:44:53;;;;;;;56.45;26.42;;;;;;;4.66;100.00;102709.03;5075783;28;20081;-79
2022/12/01 00:47:19;;;;;;;60.63;28.25;;;;;;;4.58;100.00;102692.88;5075873;28;20104;-77
2022/12/01 00:49:45;;;;;;;51.53;25.50;;;;;;;4.63;100.00;102701.38;5075668;28;20034;-79
2022/12/01 00:52:12;;;;;;;54.10;25.25;;;;;;;4.64;100.00;102705.63;5075731;28;20031;-79
2022/12/01 00:54:38;;;;;;;57.25;26.60;;;;;;;4.50;100.00;102690.38;5075709;28;20031;-79
2022/12/01 00:57:04;;;;;;;56.63;27.52;;;;;;;4.63;100.00;102708.22;5075604;28;20115;-79
2022/12/01 00:59:29;;;;;;;52.53;25.25;;;;;;;4.64;100.00;102705.63;5075679;28;20099;-77
2022/12/01 01:01:55;;;;;;;52.55;24.63;;;;;;;4.63;100.00;102701.38;5075412;28;20096;-80
2022/12/01 01:04:20;;;;;;;55.40;25.08;;;;;;;4.59;100.00;102692.00;5075515;28;20089;-78
2022/12/01 01:06:46;;;;;;;50.80;24.38;;;;;;;4.60;100.00;102703.94;5075386;28;20032;-80
2022/12/01 01:09:12;;;;;;;59.13;24.88;;;;;;;4.60;100.00;102703.94;5075529;28;20057;-77
2022/12/01 01:11:38;;;;;;;52.78;25.10;;;;;;;4.60;100.00;102706.50;5075042;28;20521;-79
2022/12/01 01:14:04;;;;;;;53.38;25.42;;;;;;;4.59;100.00;102717.59;5075336;28;20111;-78
2022/12/01 01:16:30;;;;;;;55.60;24.85;;;;;;;4.28;100.00;102659.00;5056954;28;20036;-80
2022/12/01 01:18:57;;;;;;;53.90;25.35;;;;;;;4.60;100.00;102719.28;5057231;28;20036;-78
2022/12/01 01:21:23;;;;;;;51.72;24.30;;;;;;;4.60;100.00;102724.41;5075172;28;20533;-79
2022/12/01 01:23:49;;;;;;;59.10;27.77;;;;;;;4.54;100.00;102714.25;5075132;28;20032;-77
2022/12/01 01:26:17;;;;;;;54.25;24.73;;;;;;;4.58;100.00;102721.03;5074755;28;20111;-79
2022/12/01 01:28:42;;;;;;;53.47;25.42;;;;;;;4.56;100.00;102723.59;5074103;28;20040;-81
2022/12/01 01:31:10;;;;;;;54.60;25.77;;;;;;;4.49;100.00;102716.81;5056909;28;20032;-80
2022/12/01 01:33:36;;;;;;;56.20;25.88;;;;;;;4.42;100.00;102698.97;5074980;28;20134;-78
2022/12/01 01:36:03;;;;;;;55.83;26.13;;;;;;;4.59;100.00;102733.78;5074648;28;20040;-76
2022/12/01 01:38:29;;;;;;;53.85;27.00;;;;;;;4.61;100.00;102738.91;5074993;28;20023;-78
2022/12/01 01:40:55;;;;;;;54.33;25.27;;;;;;;4.51;100.00;102715.09;5074672;28;20021;-77
2022/12/01 01:43:49;;;;;;;51.80;25.73;;;;;;;4.68;100.00;102734.59;5074830;28;20024;-78
2022/12/01 01:46:20;;;;;;;60.05;25.52;;;;;;;4.66;100.00;102736.31;5074653;28;20028;-77
2022/12/01 01:48:51;;;;;;;57.42;26.77;;;;;;;4.56;100.00;102725.31;5056739;28;20025;-80
2022/12/01 01:51:21;;;;;;;53.50;25.52;;;;;;;4.57;100.00;102729.56;5074552;28;20029;-76
2022/12/01 01:53:48;;;;;;;58.38;26.15;;;;;;;4.65;100.00;102739.75;5074416;28;20052;-77
2022/12/01 01:56:13;;;;;;;63.47;27.85;;;;;;;4.63;100.00;102736.34;5074489;28;20021;-78
2022/12/01 01:58:40;;;;;;;64.07;26.80;;;;;;;4.46;100.00;102708.31;5074215;28;20020;-80
2022/12/01 02:01:05;;;;;;;57.10;27.98;;;;;;;4.62;100.00;102738.03;5074174;28;20362;-79
2022/12/01 02:03:32;;;;;;;62.03;27.38;;;;;;;4.63;100.00;102732.09;5074392;28;20035;-80
2022/12/01 02:05:58;;;;;;;61.03;27.35;;;;;;;4.65;100.00;102732.06;5074194;28;20523;-78
2022/12/01 02:08:23;;;;;;;62.50;27.73;;;;;;;4.61;100.00;102734.63;5074225;28;20029;-79
2022/12/01 02:11:11;;;;;;;57.92;26.23;;;;;;;4.63;100.00;102731.25;5073928;28;20048;-77
2022/12/01 02:13:39;;;;;;;59.10;27.33;;;;;;;4.64;100.00;102733.78;5074037;28;20036;-78
2022/12/01 02:16:13;;;;;;;61.78;27.15;;;;;;;4.66;100.00;102737.16;5073971;28;20024;-78
2022/12/01 02:19:03;;;;;;;56.40;27.02;;;;;;;4.66;100.00;102739.72;5072744;28;20029;-76
2022/12/01 02:21:46;;;;;;;61.25;27.40;;;;;;;4.54;100.00;102720.22;5074036;28;20028;-78
2022/12/01 02:24:30;;;;;;;57.53;26.60;;;;;;;4.64;100.00;102735.50;5073723;28;20021;-77
2022/12/01 02:27:02;;;;;;;58.80;27.15;;;;;;;4.51;100.00;102716.81;5073934;28;20380;-80
2022/12/01 02:29:45;;;;;;;58.58;26.27;;;;;;;4.63;100.00;102736.34;5073877;28;20024;-75
2022/12/01 02:32:42;;;;;;;53.67;26.20;;;;;;;4.64;100.00;102733.78;5073794;28;20388;-76
2022/12/01 02:35:23;;;;;;;59.63;26.60;;;;;;;4.64;100.00;102741.47;5073679;28;20056;-77
2022/12/01 02:38:06;;;;;;;57.78;27.27;;;;;;;4.64;100.00;102738.91;5070594;28;20074;-75
2022/12/01 02:40:47;;;;;;;56.55;25.13;;;;;;;4.65;100.00;102735.47;5073724;28;20060;-77
2022/12/01 02:43:26;;;;;;;58.25;26.58;;;;;;;4.65;100.00;102735.47;5072139;28;20024;-77
2022/12/01 02:46:13;;;;;;;58.53;27.67;;;;;;;4.59;100.00;102733.78;5073756;28;20025;-76
2022/12/01 02:48:43;;;;;;;56.60;25.52;;;;;;;4.63;100.00;102734.66;5073682;28;20056;-76
2022/12/01 02:51:14;;;;;;;61.08;27.55;;;;;;;4.64;100.00;102736.34;5073364;28;20028;-76
2022/12/01 02:53:39;;;;;;;61.17;27.42;;;;;;;4.57;100.00;102725.28;5073911;28;20047;-78
2022/12/01 02:56:08;;;;;;;58.03;27.05;;;;;;;4.62;100.00;102735.47;5073556;28;20025;-76
2022/12/01 02:58:34;;;;;;;56.15;27.27;;;;;;;4.62;100.00;102727.81;5073254;28;20035;-77
2022/12/01 03:01:27;;;;;;;55.35;27.30;;;;;;;4.62;100.00;102732.91;5073473;28;20505;-77
2022/12/01 03:04:29;;;;;;;56.15;26.45;;;;;;;4.63;100.00;102733.78;5073253;28;20388;-78
2022/12/01 03:07:10;;;;;;;58.65;26.70;;;;;;;4.65;100.00;102738.03;5073247;28;20020;-77
2022/12/01 03:09:49;;;;;;;57.72;27.60;;;;;;;4.65;100.00;102732.91;5073240;28;20080;-77
2022/12/01 03:12:22;;;;;;;53.53;26.27;;;;;;;4.59;100.00;102723.56;5073084;28;20107;-77
2022/12/01 03:14:59;;;;;;;53.35;26.00;;;;;;;4.70;100.00;102741.38;5073115;28;20111;-80
2022/12/01 03:17:33;;;;;;;54.33;26.63;;;;;;;4.69;100.00;102737.13;5073276;28;20060;-77
2022/12/01 03:20:07;;;;;;;55.70;27.05;;;;;;;4.69;100.00;102738.84;5073299;28;20028;-77
2022/12/01 03:22:40;;;;;;;54.88;27.02;;;;;;;4.45;100.00;102699.81;5073125;28;20031;-78
2022/12/01 03:25:07;;;;;;;50.90;26.67;;;;;;;4.64;100.00;102738.91;5072943;28;20025;-78
2022/12/01 03:27:36;;;;;;;52.80;27.42;;;;;;;4.57;100.00;102719.31;5072894;28;20021;-81
2022/12/01 03:30:03;;;;;;;51.30;25.92;;;;;;;4.66;100.00;102733.75;5072988;28;20039;-79
2022/12/01 03:32:36;;;;;;;53.55;27.48;;;;;;;4.66;100.00;102738.88;5072996;28;20476;-80
2022/12/01 03:35:09;;;;;;;55.90;26.73;;;;;;;4.67;100.00;102732.91;5071156;28;20075;-80
2022/12/01 03:37:40;;;;;;;56.33;27.83;;;;;;;4.50;100.00;102703.16;5073049;28;20032;-81
2022/12/01 03:40:09;;;;;;;61.55;29.58;;;;;;;4.68;100.00;102737.16;5071709;28;20476;-80
2022/12/01 03:42:39;;;;;;;56.58;26.55;;;;;;;4.56;100.00;102720.19;5072965;28;20017;-82
2022/12/01 03:45:09;;;;;;;57.05;27.63;;;;;;;4.50;100.00;102710.84;5072894;28;20108;-80
2022/12/01 03:47:36;;;;;;;54.53;26.50;;;;;;;4.64;100.00;102725.25;5072800;28;20025;-81
2022/12/01 03:50:03;;;;;;;59.90;27.90;;;;;;;4.68;100.00;102737.16;5072994;28;20041;-80
2022/12/01 03:52:49;;;;;;;56.63;28.27;;;;;;;4.70;100.00;102732.88;5074855;28;20447;-81
2022/12/01 03:55:27;;;;;;;60.45;27.98;;;;;;;4.70;100.00;102743.09;5077328;28;20026;-81
2022/12/01 03:58:01;;;;;;;54.00;27.48;;;;;;;4.65;100.00;102740.59;5077106;28;20062;-81
2022/12/01 04:00:27;;;;;;;56.63;27.23;;;;;;;4.68;100.00;102738.00;5076755;28;20032;-82
2022/12/01 04:02:58;;;;;;;53.88;26.02;;;;;;;4.41;100.00;102697.25;5076579;28;20020;-81
2022/12/01 04:05:24;;;;;;;54.67;27.00;;;;;;;4.68;100.00;102739.72;5076754;28;20024;-80
2022/12/01 04:07:50;;;;;;;54.25;26.13;;;;;;;4.59;100.00;102728.69;5076805;28;20059;-81
2022/12/01 04:10:15;;;;;;;54.30;25.77;;;;;;;4.55;100.00;102724.47;5076410;28;20131;-81
2022/12/01 04:12:40;;;;;;;57.40;28.10;;;;;;;4.66;100.00;102736.31;5076535;28;20071;-77
2022/12/01 04:15:09;;;;;;;56.15;27.77;;;;;;;4.66;100.00;102739.72;5076073;28;20020;-81
2022/12/01 04:17:35;;;;;;;52.17;26.23;;;;;;;4.50;100.00;102718.50;5076366;28;20024;-81
2022/12/01 04:20:02;;;;;;;50.90;27.25;;;;;;;4.61;100.00;102742.31;5076367;28;20036;-81
2022/12/01 04:22:28;;;;;;;51.03;25.92;;;;;;;4.57;100.00;102737.25;5076487;28;20024;-81
2022/12/01 04:24:53;;;;;;;51.38;27.05;;;;;;;4.63;100.00;102751.72;5074682;28;20502;-81
2022/12/01 04:27:19;;;;;;;57.70;27.23;;;;;;;4.61;100.00;102746.56;5076106;28;20055;-81
2022/12/01 04:29:45;;;;;;;56.53;27.70;;;;;;;4.58;100.00;102752.56;5075894;28;20024;-80
2022/12/01 04:32:10;;;;;;;48.53;26.63;;;;;;;4.53;100.00;102738.13;5076165;28;20132;-81
2022/12/01 04:34:35;;;;;;;57.00;27.75;;;;;;;4.53;100.00;102733.00;5074898;28;20122;-81
2022/12/01 04:37:01;;;;;;;50.40;26.33;;;;;;;4.60;100.00;102744.88;5076020;28;20032;-80
2022/12/01 04:39:27;;;;;;;54.13;27.33;;;;;;;4.58;100.00;102739.78;5076191;28;20024;-81
2022/12/01 04:41:52;;;;;;;51.35;26.85;;;;;;;4.28;100.00;102692.25;5074142;28;20373;-80
2022/12/01 04:44:17;;;;;;;54.80;27.90;;;;;;;4.59;100.00;102743.19;5075784;28;20376;-77
2022/12/01 04:46:43;;;;;;;53.30;26.75;;;;;;;4.50;100.00;102726.19;5075896;28;20056;-80
2022/12/01 04:49:08;;;;;;;52.35;25.88;;;;;;;4.59;100.00;102735.50;5075705;28;20098;-81
2022/12/01 04:51:33;;;;;;;56.03;26.13;;;;;;;4.61;100.00;102736.34;5075826;28;20035;-81
2022/12/01 04:54:01;;;;;;;55.00;26.67;;;;;;;4.63;100.00;102744.03;5075700;28;20036;-80
2022/12/01 04:56:26;;;;;;;54.33;26.52;;;;;;;4.63;100.00;102742.31;5075673;28;20077;-77
2022/12/01 04:58:52;;;;;;;53.72;25.67;;;;;;;4.40;100.00;102705.81;5075532;28;20028;-81
2022/12/01 05:01:17;;;;;;;60.92;27.73;;;;;;;4.59;100.00;102735.50;5075143;28;20036;-80
2022/12/01 05:03:45;;;;;;;52.22;25.80;;;;;;;4.48;100.00;102724.50;5074351;28;20511;-78
2022/12/01 05:06:14;;;;;;;50.45;26.60;;;;;;;4.59;100.00;102743.19;5075336;28;20052;-77
2022/12/01 05:08:40;;;;;;;52.72;26.70;;;;;;;4.56;100.00;102732.97;5076088;28;20012;-79
2022/12/01 05:11:10;;;;;;;48.92;25.95;;;;;;;4.49;100.00;102716.81;5075045;28;20136;-78
2022/12/01 05:13:38;;;;;;;51.50;27.42;;;;;;;4.60;100.00;102732.09;5075384;28;20028;-81
2022/12/01 05:16:28;;;;;;;55.17;26.55;;;;;;;4.63;100.00;102744.03;5075118;28;20119;-77
2022/12/01 05:21:41;;;;;;;54.50;26.23;;;;;;;4.44;100.00;102722.84;5075481;28;20067;-78
2022/12/01 05:24:07;;;;;;;54.05;26.85;;;;;;;4.35;100.00;102712.69;5072843;28;20471;-82
2022/12/01 05:26:33;;;;;;;61.00;28.38;;;;;;;4.44;100.00;102726.25;5075217;28;20025;-79
2022/12/01 05:28:58;;;;;;;56.90;28.17;;;;;;;4.46;100.00;102729.63;5075000;28;20017;-79
2022/12/01 05:31:24;;;;;;;56.58;27.20;;;;;;;4.47;100.00;102738.16;5074615;28;20038;-77
2022/12/01 05:33:49;;;;;;;56.28;27.48;;;;;;;4.52;100.00;102750.06;5074877;28;20198;-81
2022/12/01 05:36:14;;;;;;;60.83;28.25;;;;;;;4.52;100.00;102749.19;5074663;28;20118;-81
2022/12/01 05:38:40;;;;;;;63.08;29.05;;;;;;;4.51;100.00;102752.63;5074941;28;20472;-81
2022/12/01 05:41:05;;;;;;;62.38;28.90;;;;;;;4.29;100.00;102714.41;5074880;28;20032;-78
2022/12/01 05:43:31;;;;;;;58.30;28.35;;;;;;;4.53;100.00;102750.94;5074838;28;20475;-78
2022/12/01 05:45:56;;;;;;;56.35;28.23;;;;;;;4.54;100.00;102752.63;5074490;28;20031;-79
2022/12/01 05:48:22;;;;;;;60.13;28.42;;;;;;;4.54;100.00;102745.78;5074548;28;20099;-77
2022/12/01 05:50:47;;;;;;;59.75;29.35;;;;;;;4.54;100.00;102748.34;5074737;28;20127;-80
2022/12/01 05:53:13;;;;;;;62.00;29.55;;;;;;;4.31;100.00;102725.47;5074587;28;20023;-78
2022/12/01 05:55:39;;;;;;;62.15;29.88;;;;;;;4.41;100.00;102736.47;5074557;28;20050;-77
2022/12/01 05:58:05;;;;;;;63.95;30.33;;;;;;;4.38;100.00;102735.66;5073162;28;20469;-77
2022/12/01 06:00:30;;;;;;;62.40;30.67;;;;;;;4.49;100.00;102759.47;5074258;28;20032;-80
2022/12/01 06:02:56;;;;;;;62.78;30.63;;;;;;;4.46;100.00;102755.22;5074479;28;20369;-77
2022/12/01 06:05:21;;;;;;;68.43;30.40;;;;;;;4.47;100.00;102756.06;5074287;28;20025;-80
2022/12/01 06:07:46;;;;;;;61.88;29.38;;;;;;;4.48;100.00;102753.50;5074294;28;20025;-81
2022/12/01 06:10:12;;;;;;;60.65;29.73;;;;;;;4.33;100.00;102733.16;5074111;28;20064;-81
2022/12/01 06:12:37;;;;;;;64.47;30.02;;;;;;;4.44;100.00;102753.53;5074182;28;20424;-79
2022/12/01 06:15:05;;;;;;;67.40;31.30;;;;;;;4.41;100.00;102746.72;5073615;28;20522;-81
2022/12/01 06:17:30;;;;;;;62.83;29.25;;;;;;;4.43;100.00;102746.72;5073722;28;20064;-79
2022/12/01 06:19:55;;;;;;;63.85;29.00;;;;;;;4.50;100.00;102761.16;5074031;28;20048;-81
2022/12/01 06:22:21;;;;;;;67.38;31.80;;;;;;;4.52;100.00;102759.44;5073878;28;20024;-80
2022/12/01 06:24:46;;;;;;;71.15;30.17;;;;;;;4.51;100.00;102761.13;5074053;28;20384;-78
2022/12/01 06:27:11;;;;;;;63.05;30.85;;;;;;;4.47;100.00;102750.94;5073817;28;20025;-78
2022/12/01 06:29:37;;;;;;;60.58;29.55;;;;;;;4.26;100.00;102718.69;5073976;28;20486;-79
2022/12/01 06:32:02;;;;;;;67.35;31.65;;;;;;;4.38;100.00;102733.97;5073420;28;20082;-80
2022/12/01 06:34:28;;;;;;;61.97;28.63;;;;;;;4.27;100.00;102713.56;5073583;28;20528;-79
2022/12/01 06:36:53;;;;;;;67.88;30.55;;;;;;;4.36;100.00;102730.56;5073873;28;20557;-79
2022/12/01 06:39:18;;;;;;;61.58;29.23;;;;;;;4.42;100.00;102750.97;5073633;28;20487;-78
2022/12/01 06:41:44;;;;;;;64.47;30.80;;;;;;;4.25;100.00;102719.56;5073561;28;20059;-80
2022/12/01 06:44:09;;;;;;;61.95;29.27;;;;;;;4.51;100.00;102763.69;5073729;28;20029;-78
2022/12/01 06:46:35;;;;;;;64.45;30.08;;;;;;;4.48;100.00;102757.75;5073424;28;20119;-78
2022/12/01 06:49:00;;;;;;;64.25;29.90;;;;;;;4.39;100.00;102747.59;5073247;28;20030;-78
2022/12/01 06:51:27;;;;;;;63.15;29.40;;;;;;;4.42;100.00;102760.34;5073650;28;20068;-78
2022/12/01 06:53:53;;;;;;;67.05;29.80;;;;;;;4.41;100.00;102754.38;5073408;28;20507;-78
2022/12/01 06:56:20;;;;;;;63.15;29.58;;;;;;;4.26;100.00;102728.94;5071581;28;20477;-78
2022/12/01 06:58:45;;;;;;;62.60;30.45;;;;;;;4.54;100.00;102780.75;5073451;28;20123;-78
2022/12/01 07:01:11;;;;;;;62.55;30.50;;;;;;;4.56;100.00;102785.00;5072098;28;20515;-78
2022/12/01 07:03:38;;;;;;;66.88;30.48;;;;;;;4.55;100.00;102785.03;5073170;28;20104;-80
2022/12/01 07:06:03;;;;;;;59.92;28.67;;;;;;;4.55;100.00;102782.47;5073060;28;20040;-80
2022/12/01 07:08:30;;;;;;;65.03;30.67;;;;;;;4.41;100.00;102763.78;5073512;28;20025;-79
2022/12/01 07:11:02;;;;;;;67.43;30.30;;;;;;;4.55;100.00;102790.13;5073008;28;20045;-80
2022/12/01 07:13:27;;;;;;;57.78;28.15;;;;;;;4.25;100.00;102742.56;5073278;28;20392;-80
2022/12/01 07:15:53;;;;;;;57.28;29.05;;;;;;;4.54;100.00;102788.44;5073033;28;20111;-78
2022/12/01 07:18:18;;;;;;;63.10;29.35;;;;;;;4.54;100.00;102793.56;5072770;28;20527;-79
2022/12/01 07:20:43;;;;;;;60.38;28.13;;;;;;;4.36;100.00;102771.50;5072985;28;20530;-79
2022/12/01 07:23:09;;;;;;;56.72;27.48;;;;;;;4.35;100.00;102763.81;5073160;28;20024;-80
2022/12/01 07:25:34;;;;;;;57.72;28.55;;;;;;;4.56;100.00;102799.50;5074301;28;20133;-76
2022/12/01 07:28:00;;;;;;;57.90;28.50;;;;;;;4.58;100.00;102800.34;5093300;28;20081;-78
2022/12/01 07:30:25;;;;;;;59.58;30.15;;;;;;;4.59;100.00;102802.88;5093253;28;20076;-76
2022/12/01 07:32:50;;;;;;;55.30;27.40;;;;;;;4.59;100.00;102800.31;5092970;28;20103;-78
2022/12/01 07:35:16;;;;;;;58.67;29.98;;;;;;;4.59;100.00;102805.44;5093030;28;20103;-78
2022/12/01 07:37:41;;;;;;;58.03;28.08;;;;;;;4.61;100.00;102800.31;5074540;28;20484;-76
2022/12/01 07:40:07;;;;;;;55.00;27.38;;;;;;;4.62;100.00;102809.69;5093108;28;20098;-76
2022/12/01 07:42:32;;;;;;;61.83;29.55;;;;;;;4.39;100.00;102761.22;5092968;28;20056;-79
2022/12/01 07:44:57;;;;;;;64.82;30.35;;;;;;;4.69;100.00;102802.81;5092906;28;20032;-79
2022/12/01 07:47:23;;;;;;;58.65;29.52;;;;;;;4.71;100.00;102807.06;5093010;28;20025;-79
2022/12/01 07:49:48;;;;;;;54.80;28.38;;;;;;;4.51;100.00;102783.31;5092809;28;20031;-79
2022/12/01 07:52:14;;;;;;;54.72;28.08;;;;;;;4.70;100.00;102813.03;5093076;28;20080;-81
2022/12/01 07:54:39;;;;;;;54.72;27.85;;;;;;;4.71;100.00;102814.75;5093168;28;20028;-79
2022/12/01 07:57:04;;;;;;;56.13;27.98;;;;;;;4.74;100.00;102819.88;5074242;28;20128;-79
2022/12/01 07:59:29;;;;;;;55.25;28.52;;;;;;;4.73;100.00;102815.59;5035910;28;20466;-77
2022/12/01 08:01:55;;;;;;;51.42;26.33;;;;;;;4.77;100.00;102818.97;5051715;28;20032;-81
2022/12/01 08:04:20;;;;;;;61.13;29.23;;;;;;;4.60;100.00;102786.66;5052022;28;20024;-82
2022/12/01 08:06:45;;;;;;;57.67;27.75;;;;;;;4.66;100.00;102802.84;5052632;28;20053;-82
2022/12/01 08:09:11;;;;;;;56.88;28.80;;;;;;;4.80;100.00;102824.06;5052672;28;20041;-87
2022/12/01 08:11:36;;;;;;;57.65;26.70;;;;;;;4.65;100.00;102796.03;5052288;28;20044;-84
2022/12/01 08:14:01;;;;;;;53.40;28.23;;;;;;;4.76;100.00;102818.13;5052649;28;20029;-84
2022/12/01 08:16:27;;;;;;;56.85;28.08;;;;;;;4.82;100.00;102828.34;5050372;28;20115;-86
2022/12/01 08:18:52;;;;;;;55.67;27.55;;;;;;;4.83;100.00;102835.16;5052303;28;20025;-83
2022/12/01 08:21:20;;;;;;;55.03;27.30;;;;;;;4.86;100.00;102831.72;5052484;28;20122;-86
2022/12/01 08:23:47;;;;;;;56.88;28.63;;;;;;;4.88;100.00;102830.00;5052592;28;20057;-85
2022/12/01 08:26:15;;;;;;;57.50;28.42;;;;;;;4.75;100.00;102816.44;5052340;28;20032;-82
2022/12/01 08:28:41;;;;;;;62.30;28.73;;;;;;;4.88;100.00;102840.22;5052471;28;20036;-85
2022/12/01 08:31:16;;;;;;;55.22;28.10;;;;;;;4.86;100.00;102830.00;5052589;28;20033;-82
2022/12/01 08:33:42;;;;;;;57.90;28.58;;;;;;;4.77;100.00;102824.94;5052532;28;20381;-84
2022/12/01 08:36:07;;;;;;;56.67;27.92;;;;;;;4.90;100.00;102841.06;5052424;28;20017;-84
2022/12/01 08:38:33;;;;;;;59.58;30.08;;;;;;;4.72;100.00;102811.34;5056191;28;20398;-83
2022/12/01 08:41:00;;;;;;;57.15;28.95;;;;;;;4.76;100.00;102809.59;5056074;28;20055;-85
2022/12/01 08:43:25;;;;;;;53.63;27.42;;;;;;;4.84;100.00;102825.75;5056120;28;20037;-87
2022/12/01 08:45:51;;;;;;;55.38;28.20;;;;;;;4.97;100.00;102844.44;5056038;28;20100;-84
2022/12/01 08:48:16;;;;;;;55.35;28.83;;;;;;;4.81;100.00;102811.25;5055674;28;20017;-77
2022/12/01 08:50:41;;;;;;;57.28;29.17;;;;;;;5.01;100.00;102834.16;5055535;28;20040;-83
2022/12/01 08:53:06;;;;;;;55.53;28.45;;;;;;;5.06;100.00;102841.81;5055846;28;20091;-86
2022/12/01 08:55:32;;;;;;;56.75;29.40;;;;;;;5.08;100.00;102845.19;5055909;28;20048;-76
2022/12/01 08:57:57;;;;;;;55.25;28.55;;;;;;;5.05;100.00;102851.22;5055822;28;20029;-76
2022/12/01 09:00:22;;;;;;;56.70;27.40;;;;;;;5.04;100.00;102843.53;5055823;28;20024;-76
2022/12/01 09:02:47;;;;;;;52.45;26.77;;;;;;;5.07;100.00;102844.34;5055640;28;20051;-77
2022/12/01 09:05:13;;;;;;;51.47;26.70;;;;;;;5.15;100.00;102851.97;5055500;28;20028;-77
2022/12/01 09:07:39;;;;;;;53.42;27.52;;;;;;;5.10;100.00;102839.19;5055422;28;20021;-76
2022/12/01 09:10:05;;;;;;;55.13;29.20;;;;;;;5.14;100.00;102845.16;5055226;28;20116;-74
2022/12/01 09:12:31;;;;;;;56.25;27.30;;;;;;;5.18;100.00;102840.00;5055615;28;20144;-72
2022/12/01 09:14:56;;;;;;;56.50;29.08;;;;;;;5.23;100.00;102846.81;5050765;28;20022;-74
2022/12/01 09:17:22;;;;;;;52.13;28.88;;;;;;;5.07;100.00;102812.78;5035256;28;20022;-75
2022/12/01 09:19:47;;;;;;;59.88;28.63;;;;;;;5.12;100.00;102818.72;5033283;28;20482;-75
2022/12/01 09:22:13;;;;;;;54.67;28.02;;;;;;;5.36;100.00;102851.81;5034961;28;20033;-76
2022/12/01 09:24:38;;;;;;;51.08;26.60;;;;;;;5.21;100.00;102821.22;5035127;28;20492;-73
2022/12/01 09:27:04;;;;;;;53.97;27.88;;;;;;;5.27;100.00;102831.38;5035213;28;20033;-75
2022/12/01 09:29:30;;;;;;;55.83;27.55;;;;;;;5.26;100.00;102827.13;5035270;28;20112;-77
2022/12/01 09:31:58;;;;;;;56.10;28.30;;;;;;;5.35;100.00;102834.72;5034996;28;20041;-77
2022/12/01 09:34:24;;;;;;;51.42;28.10;;;;;;;5.48;100.00;102846.56;5034931;28;20028;-76
2022/12/01 09:36:49;;;;;;;49.50;27.08;;;;;;;5.58;100.00;102857.56;5034941;28;20037;-76
2022/12/01 09:39:18;;;;;;;52.00;27.58;;;;;;;5.51;100.00;102850.81;5034983;28;20037;-82
2022/12/01 09:41:48;;;;;;;48.58;26.45;;;;;;;5.51;100.00;102850.81;5034972;28;20025;-75
2022/12/01 09:44:47;;;;;;;52.80;26.88;;;;;;;5.66;100.00;102860.91;5035032;28;20052;-75
2022/12/01 09:47:21;;;;;;;56.95;29.73;;;;;;;5.70;100.00;102859.16;5033208;28;20392;-79
2022/12/01 09:50:05;;;;;;;50.90;27.30;;;;;;;5.58;100.00;102841.34;5033912;28;20025;-77
2022/12/01 09:52:38;;;;;;;52.80;26.98;;;;;;;5.68;100.00;102861.75;5034704;28;20031;-80
2022/12/01 09:55:11;;;;;;;52.55;26.73;;;;;;;5.67;100.00;102854.91;5032988;28;20038;-78
2022/12/01 09:57:39;;;;;;;50.65;27.48;;;;;;;5.76;100.00;102854.81;5034693;28;20034;-78
2022/12/01 10:00:19;;;;;;;55.35;28.17;;;;;;;5.78;100.00;102843.69;5034599;28;20021;-75
2022/12/01 10:03:04;;;;;;;56.53;29.73;;;;;;;5.57;100.00;102821.72;5034551;28;20061;-76
2022/12/01 10:05:49;;;;;;;58.58;28.30;;;;;;;5.65;100.00;102846.41;5034206;28;20029;-75
2022/12/01 10:08:18;;;;;;;53.55;29.38;;;;;;;5.47;100.00;102829.47;5034413;28;20041;-77
2022/12/01 10:10:46;;;;;;;52.58;27.30;;;;;;;5.56;100.00;102845.63;5032319;28;20060;-76
2022/12/01 10:13:18;;;;;;;52.25;27.70;;;;;;;5.41;100.00;102814.19;5034337;28;20087;-79
2022/12/01 10:15:52;;;;;;;58.03;29.52;;;;;;;5.55;100.00;102841.38;5034286;28;20481;-84
2022/12/01 10:18:39;;;;;;;54.17;27.63;;;;;;;5.54;100.00;102839.69;5034027;28;20021;-84
2022/12/01 10:21:29;;;;;;;56.10;27.73;;;;;;;5.45;100.00;102841.47;5032841;28;20421;-82
2022/12/01 10:24:18;;;;;;;55.83;28.67;;;;;;;5.44;100.00;102839.78;5034363;28;20029;-76
2022/12/01 10:27:07;;;;;;;55.40;27.75;;;;;;;5.45;100.00;102833.78;5034113;28;20362;-73
2022/12/01 10:29:35;;;;;;;55.72;27.85;;;;;;;5.41;100.00;102832.13;5034097;28;20040;-85
2022/12/01 10:32:08;;;;;;;55.08;27.10;;;;;;;5.42;100.00;102830.41;5034043;28;20037;-87
2022/12/01 10:34:38;;;;;;;56.63;27.13;;;;;;;5.35;100.00;102809.13;5034012;28;20457;-88
2022/12/01 10:37:04;;;;;;;59.17;29.05;;;;;;;5.58;100.00;102831.09;5033443;28;20053;-81
2022/12/01 10:39:42;;;;;;;57.92;27.88;;;;;;;5.58;100.00;102800.34;5033786;28;20032;-81
2022/12/01 10:42:20;;;;;;;60.58;28.92;;;;;;;5.84;100.00;102806.03;5033810;28;20087;-86
2022/12/01 10:44:47;;;;;;;59.03;28.30;;;;;;;5.94;100.00;102799.97;5033952;28;20029;-87
2022/12/01 10:47:19;;;;;;;59.13;28.63;;;;;;;6.14;99.98;102819.38;5033399;28;20021;-84
2022/12/01 10:49:45;;;;;;;53.45;28.25;;;;;;;6.01;99.43;102790.50;5033776;28;20052;-80
2022/12/01 10:52:37;;;;;;;59.50;28.67;;;;;;;6.16;100.00;102810.78;5033580;28;20069;-90
2022/12/01 10:55:25;;;;;;;55.75;28.27;;;;;;;6.06;100.00;102808.38;5033666;28;20049;-89
2022/12/01 10:57:53;;;;;;;60.15;29.65;;;;;;;6.05;100.00;102812.66;5033513;28;20026;-88
2022/12/01 11:00:24;;;;;;;55.75;27.75;;;;;;;6.01;100.00;102811.84;5033383;28;20045;-87
2022/12/01 11:02:49;;;;;;;55.58;28.05;;;;;;;6.02;100.00;102807.56;5033458;28;20025;-91
2022/12/01 11:05:25;;;;;;;54.75;28.23;;;;;;;5.91;100.00;102789.75;5047042;28;20116;-90
2022/12/01 11:07:51;;;;;;;57.60;27.58;;;;;;;5.94;100.00;102787.16;5054107;28;20111;-89
2022/12/01 11:10:18;;;;;;;56.85;27.83;;;;;;;6.03;100.00;102809.25;5053146;28;20049;-83
2022/12/01 11:12:52;;;;;;;59.25;29.08;;;;;;;6.07;100.00;102813.47;5052091;28;20391;-87
2022/12/01 11:15:31;;;;;;;50.80;27.02;;;;;;;6.18;100.00;102808.22;5053036;28;20100;-87
2022/12/01 11:18:02;;;;;;;57.47;27.58;;;;;;;6.40;100.00;102811.34;5053096;28;20033;-80
2022/12/01 11:20:36;;;;;;;51.35;26.38;;;;;;;6.55;99.34;102806.00;5053146;28;20477;-85